createdAt,value
2022-09-12T00:02:04.341Z,4.75
2022-09-12T00:04:31.362Z,3.78
2022-09-12T00:06:58.298Z,4.03
2022-09-12T00:09:25.208Z,4.25
2022-09-12T00:11:52.168Z,3.50
2022-09-12T00:14:19.326Z,4.37
2022-09-12T00:16:46.315Z,3.67
2022-09-12T00:19:13.652Z,4.87
2022-09-12T00:21:41.032Z,4.07
2022-09-12T00:24:09.493Z,4.18
2022-09-12T00:26:36.561Z,4.87
2022-09-12T00:29:03.588Z,5.03
2022-09-12T00:31:30.673Z,5.15
2022-09-12T00:34:00.905Z,4.72
2022-09-12T00:36:30.199Z,4.62
2022-09-12T00:38:57.174Z,4.95
2022-09-12T00:41:34.418Z,5.22
2022-09-12T00:44:23.131Z,5.10
2022-09-12T00:47:04.967Z,5.55
2022-09-12T00:49:43.910Z,5.75
2022-09-12T00:52:12.532Z,5.37
2022-09-12T00:54:44.091Z,6.95
2022-09-12T00:57:13.669Z,4.47
2022-09-12T00:59:55.345Z,5.50
2022-09-12T01:02:23.263Z,6.12
2022-09-12T01:04:50.896Z,4.65
2022-09-12T01:07:18.204Z,6.00
2022-09-12T01:09:45.813Z,6.72
2022-09-12T01:12:14.857Z,4.70
2022-09-12T01:14:41.805Z,4.07
2022-09-12T01:17:13.066Z,3.17
2022-09-12T01:20:04.672Z,3.75
2022-09-12T01:22:40.501Z,3.03
2022-09-12T01:25:26.746Z,5.50
2022-09-12T01:28:12.247Z,3.75
2022-09-12T01:30:39.078Z,3.95
2022-09-12T01:33:30.207Z,4.82
2022-09-12T01:36:09.061Z,3.47
2022-09-12T01:38:50.384Z,5.60
2022-09-12T01:41:17.227Z,4.05
2022-09-12T01:44:10.551Z,3.37
2022-09-12T01:46:56.261Z,2.92
2022-09-12T01:49:48.582Z,3.45
2022-09-12T01:52:22.758Z,3.53
2022-09-12T01:54:59.824Z,3.40
2022-09-12T01:57:36.572Z,3.85
2022-09-12T02:00:10.833Z,4.40
2022-09-12T02:02:39.837Z,3.83
2022-09-12T02:05:11.327Z,4.47
2022-09-12T02:07:47.568Z,3.87
2022-09-12T02:10:28.045Z,5.50
2022-09-12T02:13:06.375Z,3.83
2022-09-12T02:15:40.142Z,3.53
2022-09-12T02:18:08.431Z,3.25
2022-09-12T02:20:48.073Z,3.15
2022-09-12T02:23:28.572Z,4.00
2022-09-12T02:26:00.408Z,3.70
2022-09-12T02:28:32.007Z,4.50
2022-09-12T02:31:27.971Z,3.33
2022-09-12T02:34:02.117Z,4.00
2022-09-12T02:36:52.033Z,5.03
2022-09-12T02:39:21.020Z,8.65
2022-09-12T02:41:51.822Z,14.13
2022-09-12T02:44:19.327Z,27.83
2022-09-12T02:46:54.211Z,7.78
2022-09-12T02:49:21.258Z,7.80
2022-09-12T02:51:48.804Z,15.57
2022-09-12T02:54:17.689Z,36.45
2022-09-12T02:56:45.849Z,49.25
2022-09-12T02:59:16.627Z,24.87
2022-09-12T03:01:55.698Z,15.82
2022-09-12T03:04:38.114Z,28.33
2022-09-12T03:07:26.486Z,17.42
2022-09-12T03:10:10.396Z,3.53
2022-09-12T03:12:57.205Z,5.53
2022-09-12T03:15:48.239Z,4.65
2022-09-12T03:18:52.027Z,4.70
2022-09-12T03:21:43.010Z,3.60
2022-09-12T03:24:18.543Z,3.85
2022-09-12T03:26:53.484Z,5.10
2022-09-12T03:29:21.859Z,3.53
2022-09-12T03:31:57.103Z,4.05
2022-09-12T03:34:27.223Z,4.45
2022-09-12T03:36:55.593Z,4.00
2022-09-12T03:39:24.596Z,3.60
2022-09-12T03:41:52.142Z,3.45
2022-09-12T03:44:19.578Z,2.67
2022-09-12T03:46:46.819Z,2.97
2022-09-12T03:49:14.017Z,1.50
2022-09-12T03:51:41.271Z,1.52
2022-09-12T03:54:08.173Z,1.40
2022-09-12T03:56:35.962Z,1.67
2022-09-12T03:59:06.760Z,1.37
2022-09-12T04:01:34.309Z,1.17
2022-09-12T04:04:01.491Z,1.87
2022-09-12T04:06:28.457Z,1.40
2022-09-12T04:08:55.648Z,1.70
2022-09-12T04:11:23.909Z,1.27
2022-09-12T04:13:51.155Z,1.90
2022-09-12T04:16:18.803Z,2.80
2022-09-12T04:18:46.410Z,1.83
2022-09-12T04:21:16.491Z,2.00
2022-09-12T04:23:43.645Z,1.90
2022-09-12T04:26:13.710Z,1.87
2022-09-12T04:28:41.374Z,2.22
2022-09-12T04:31:12.330Z,2.10
2022-09-12T04:33:39.824Z,2.58
2022-09-12T04:36:16.701Z,2.78
2022-09-12T04:38:45.409Z,5.60
2022-09-12T04:41:18.214Z,1.90
2022-09-12T04:43:48.713Z,1.92
2022-09-12T04:46:17.502Z,2.00
2022-09-12T04:48:44.521Z,2.28
2022-09-12T04:51:14.238Z,1.20
2022-09-12T04:53:42.712Z,0.90
2022-09-12T04:56:12.244Z,0.70
2022-09-12T04:58:39.617Z,0.68
2022-09-12T05:01:28.193Z,0.43
2022-09-12T05:03:56.407Z,0.30
2022-09-12T05:06:26.025Z,0.30
2022-09-12T05:08:54.099Z,0.40
2022-09-12T05:11:26.650Z,0.40
2022-09-12T05:13:57.727Z,0.30
2022-09-12T05:16:27.623Z,0.30
2022-09-12T05:18:56.857Z,0.50
2022-09-12T05:21:24.483Z,1.55
2022-09-12T05:23:56.252Z,0.57
2022-09-12T05:26:24.027Z,0.20
2022-09-12T05:28:53.498Z,0.30
2022-09-12T05:31:26.368Z,0.40
2022-09-12T05:33:55.490Z,0.52
2022-09-12T05:36:24.875Z,0.50
2022-09-12T05:38:52.460Z,0.40
2022-09-12T05:41:26.219Z,0.80
2022-09-12T05:43:57.395Z,0.30
2022-09-12T05:46:27.242Z,0.30
2022-09-12T05:48:56.609Z,0.30
2022-09-12T05:51:26.808Z,0.30
2022-09-12T05:53:58.899Z,0.30
2022-09-12T05:56:30.687Z,0.45
2022-09-12T05:59:04.071Z,0.30
2022-09-12T06:01:33.691Z,0.57
2022-09-12T06:04:03.668Z,0.30
2022-09-12T06:06:31.723Z,0.82
2022-09-12T06:09:01.350Z,0.30
2022-09-12T06:11:30.652Z,0.30
2022-09-12T06:13:58.463Z,0.45
2022-09-12T06:16:31.153Z,0.35
2022-09-12T06:19:00.342Z,0.25
2022-09-12T06:21:28.532Z,1.70
2022-09-12T06:23:55.838Z,0.30
2022-09-12T06:26:25.698Z,0.40
2022-09-12T06:28:54.340Z,0.20
2022-09-12T06:31:33.660Z,0.30
2022-09-12T06:34:04.054Z,0.10
2022-09-12T06:36:36.778Z,0.30
2022-09-12T06:39:10.993Z,0.25
2022-09-12T06:41:42.993Z,0.30
2022-09-12T06:44:16.535Z,0.43
2022-09-12T06:46:44.390Z,0.40
2022-09-12T06:49:11.870Z,0.30
2022-09-12T06:51:38.859Z,0.30
2022-09-12T06:54:05.889Z,0.32
2022-09-12T06:56:32.907Z,0.20
2022-09-12T06:58:59.990Z,0.30
2022-09-12T07:01:29.386Z,0.20
2022-09-12T07:03:59.399Z,0.20
2022-09-12T07:06:32.102Z,0.82
2022-09-12T07:09:01.052Z,0.20
2022-09-12T07:11:33.824Z,0.20
2022-09-12T07:14:03.170Z,0.30
2022-09-12T07:16:30.705Z,0.20
2022-09-12T07:19:00.437Z,0.17
2022-09-12T07:21:27.999Z,0.77
2022-09-12T07:24:00.934Z,0.57
2022-09-12T07:26:29.439Z,0.20
2022-09-12T07:29:12.709Z,0.22
2022-09-12T07:31:45.312Z,0.25
2022-09-12T07:34:12.238Z,0.65
2022-09-12T07:36:39.338Z,0.30
2022-09-12T07:39:06.611Z,0.40
2022-09-12T07:41:34.440Z,0.03
2022-09-12T07:44:03.109Z,0.10
2022-09-12T07:46:31.740Z,0.10
2022-09-12T07:49:00.534Z,0.00
2022-09-12T07:51:30.434Z,0.10
2022-09-12T07:53:58.209Z,0.30
2022-09-12T07:56:30.110Z,0.00
2022-09-12T07:58:57.834Z,0.00
2022-09-12T08:01:24.855Z,0.28
2022-09-12T08:03:57.648Z,0.03
2022-09-12T08:06:26.018Z,0.05
2022-09-12T08:08:55.639Z,0.00
2022-09-12T08:11:23.827Z,0.00
2022-09-12T08:13:55.442Z,0.00
2022-09-12T08:16:25.951Z,0.10
2022-09-12T08:18:53.173Z,0.00
2022-09-12T08:21:28.194Z,0.00
2022-09-12T08:23:58.516Z,0.00
2022-09-12T08:26:25.797Z,0.17
2022-09-12T08:28:53.844Z,0.00
2022-09-12T08:31:22.336Z,0.00
2022-09-12T08:33:50.018Z,0.00
2022-09-12T08:36:21.066Z,0.00
2022-09-12T08:38:50.222Z,0.10
2022-09-12T08:41:29.030Z,1.10
2022-09-12T08:44:07.208Z,0.10
2022-09-12T08:46:50.464Z,0.03
2022-09-12T08:49:48.448Z,0.22
2022-09-12T08:52:22.170Z,0.00
2022-09-12T08:54:50.121Z,0.00
2022-09-12T08:57:19.199Z,0.10
2022-09-12T08:59:46.850Z,0.00
2022-09-12T09:02:37.842Z,0.00
2022-09-12T09:05:32.445Z,0.10
2022-09-12T09:08:23.617Z,0.00
2022-09-12T09:10:56.481Z,0.10
2022-09-12T09:13:43.244Z,0.10
2022-09-12T09:16:22.760Z,0.15
2022-09-12T09:18:52.585Z,0.13
2022-09-12T09:21:37.380Z,0.00
2022-09-12T09:24:13.137Z,0.00
2022-09-12T09:26:51.879Z,0.13
2022-09-12T09:29:27.242Z,0.10
2022-09-12T09:31:58.579Z,0.37
2022-09-12T09:34:30.193Z,0.10
2022-09-12T09:37:21.094Z,0.13
2022-09-12T09:40:08.879Z,0.00
2022-09-12T09:42:44.485Z,0.10
2022-09-12T09:45:21.387Z,0.10
2022-09-12T09:47:54.565Z,0.00
2022-09-12T09:50:21.717Z,0.10
2022-09-12T09:52:50.664Z,1.00
2022-09-12T09:55:24.983Z,0.30
2022-09-12T09:57:53.358Z,0.20
2022-09-12T10:00:27.770Z,0.45
2022-09-12T10:03:13.549Z,0.10
2022-09-12T10:05:57.195Z,0.32
2022-09-12T10:08:32.503Z,0.20
2022-09-12T10:11:06.336Z,0.20
2022-09-12T10:13:58.168Z,0.00
2022-09-12T10:16:27.987Z,0.10
2022-09-12T10:18:57.141Z,0.47
2022-09-12T10:21:29.320Z,0.20
2022-09-12T10:24:07.611Z,1.20
2022-09-12T10:26:38.331Z,0.10
2022-09-12T10:29:16.794Z,0.57
2022-09-12T10:31:52.146Z,0.20
2022-09-12T10:34:34.560Z,0.20
2022-09-12T10:37:19.446Z,0.13
2022-09-12T10:39:58.748Z,0.10
2022-09-12T10:42:46.177Z,0.10
2022-09-12T10:45:29.138Z,0.00
2022-09-12T10:48:06.813Z,0.03
2022-09-12T10:50:42.635Z,0.10
2022-09-12T10:53:34.558Z,0.20
2022-09-12T10:56:03.559Z,0.30
2022-09-12T10:58:43.174Z,0.25
2022-09-12T11:01:36.166Z,0.20
2022-09-12T11:04:21.854Z,0.10
2022-09-12T11:07:12.730Z,0.17
2022-09-12T11:09:48.453Z,0.10
2022-09-12T11:12:27.536Z,0.10
2022-09-12T11:15:03.596Z,0.20
2022-09-12T11:17:48.399Z,0.65
2022-09-12T11:20:53.849Z,0.10
2022-09-12T11:23:49.462Z,1.85
2022-09-12T11:26:21.355Z,0.17
2022-09-12T11:28:54.048Z,0.20
2022-09-12T11:31:32.050Z,0.30
2022-09-12T11:34:02.679Z,0.40
2022-09-12T11:37:08.573Z,0.08
2022-09-12T11:39:41.914Z,0.10
2022-09-12T11:42:17.008Z,0.10
2022-09-12T11:44:48.800Z,0.22
2022-09-12T11:47:15.696Z,0.10
2022-09-12T11:49:49.869Z,0.10
2022-09-12T11:52:27.222Z,0.10
2022-09-12T11:55:07.720Z,0.00
2022-09-12T11:57:52.829Z,0.22
2022-09-12T12:00:24.381Z,0.30
2022-09-12T12:03:20.698Z,0.10
2022-09-12T12:06:12.279Z,0.00
2022-09-12T12:08:41.762Z,0.28
2022-09-12T12:11:10.367Z,0.20
2022-09-12T12:13:54.042Z,0.05
2022-09-12T12:16:23.287Z,0.10
2022-09-12T12:19:01.424Z,0.30
2022-09-12T12:21:44.191Z,0.10
2022-09-12T12:24:23.858Z,0.10
2022-09-12T12:26:52.410Z,0.10
2022-09-12T12:29:21.996Z,0.10
2022-09-12T12:32:04.221Z,0.40
2022-09-12T12:34:37.938Z,0.20
2022-09-12T12:37:20.129Z,0.10
2022-09-12T12:39:48.239Z,0.10
2022-09-12T12:42:36.427Z,0.10
2022-09-12T12:45:09.544Z,0.05
2022-09-12T12:47:36.559Z,0.00
2022-09-12T12:50:28.588Z,0.05
2022-09-12T12:53:22.513Z,0.17
2022-09-12T12:55:51.909Z,1.17
2022-09-12T12:58:38.344Z,0.10
2022-09-12T13:01:18.088Z,0.13
2022-09-12T13:04:06.774Z,0.10
2022-09-12T13:06:39.578Z,0.35
2022-09-12T13:09:20.247Z,0.15
2022-09-12T13:11:47.298Z,0.45
2022-09-12T13:14:34.979Z,0.30
2022-09-12T13:17:06.388Z,0.00
2022-09-12T13:19:36.757Z,0.93
2022-09-12T13:22:08.584Z,0.37
2022-09-12T13:24:44.926Z,2.45
2022-09-12T13:27:25.507Z,1.33
2022-09-12T13:30:15.317Z,0.13
2022-09-12T13:32:43.706Z,0.20
2022-09-12T13:35:20.624Z,0.50
2022-09-12T13:38:18.121Z,1.17
2022-09-12T13:41:18.055Z,0.10
2022-09-12T13:43:49.691Z,0.47
2022-09-12T13:46:26.726Z,0.70
2022-09-12T13:48:54.379Z,0.20
2022-09-12T13:51:30.505Z,0.20
2022-09-12T13:54:02.471Z,0.28
2022-09-12T13:56:29.590Z,0.30
2022-09-12T13:58:58.902Z,0.15
2022-09-12T14:01:41.749Z,0.62
2022-09-12T14:04:39.847Z,0.20
2022-09-12T14:07:22.255Z,0.28
2022-09-12T14:09:57.991Z,0.22
2022-09-12T14:12:29.571Z,0.60
2022-09-12T14:14:57.018Z,0.32
2022-09-12T14:17:38.829Z,0.25
2022-09-12T14:20:09.361Z,1.83
2022-09-12T14:22:36.844Z,1.17
2022-09-12T14:25:04.521Z,1.62
2022-09-12T14:27:45.777Z,2.30
2022-09-12T14:30:34.178Z,1.80
2022-09-12T14:33:17.878Z,0.90
2022-09-12T14:36:06.300Z,0.95
2022-09-12T14:38:42.744Z,1.27
2022-09-12T14:41:12.905Z,0.57
2022-09-12T14:43:46.346Z,2.65
2022-09-12T14:46:20.133Z,0.80
2022-09-12T14:48:51.767Z,1.70
2022-09-12T14:51:53.518Z,0.35
2022-09-12T14:54:29.352Z,1.10
2022-09-12T14:57:02.358Z,0.65
2022-09-12T14:59:35.228Z,1.10
2022-09-12T15:02:21.821Z,0.85
2022-09-12T15:05:11.757Z,0.73
2022-09-12T15:08:01.881Z,0.52
2022-09-12T15:10:37.797Z,1.33
2022-09-12T15:13:16.066Z,0.98
2022-09-12T15:15:54.938Z,0.70
2022-09-12T15:18:24.758Z,0.37
2022-09-12T15:20:57.958Z,1.40
2022-09-12T15:23:24.789Z,1.35
2022-09-12T15:25:51.711Z,1.40
2022-09-12T15:28:22.477Z,1.25
2022-09-12T15:30:52.256Z,0.52
2022-09-12T15:33:21.031Z,0.82
2022-09-12T15:35:48.075Z,2.28
2022-09-12T15:38:15.115Z,0.37
2022-09-12T15:40:42.348Z,1.83
2022-09-12T15:43:14.926Z,1.12
2022-09-12T15:45:46.109Z,1.73
2022-09-12T15:48:14.022Z,0.90
2022-09-12T15:50:42.319Z,0.75
2022-09-12T15:53:18.354Z,0.98
2022-09-12T15:55:45.751Z,1.00
2022-09-12T15:58:15.990Z,1.73
2022-09-12T16:00:42.945Z,0.45
2022-09-12T16:03:22.089Z,2.60
2022-09-12T16:05:49.951Z,1.27
2022-09-12T16:08:16.865Z,0.47
2022-09-12T16:10:44.635Z,1.62
2022-09-12T16:13:11.547Z,2.22
2022-09-12T16:15:38.714Z,1.12
2022-09-12T16:18:05.653Z,2.08
2022-09-12T16:20:32.592Z,1.85
2022-09-12T16:22:59.471Z,0.80
2022-09-12T16:25:26.406Z,0.90
2022-09-12T16:27:53.390Z,0.93
2022-09-12T16:30:21.692Z,0.65
2022-09-12T16:32:48.548Z,1.75
2022-09-12T16:35:15.472Z,2.72
2022-09-12T16:37:42.490Z,1.37
2022-09-12T16:40:10.011Z,1.12
2022-09-12T16:42:41.798Z,1.12
2022-09-12T16:45:11.059Z,1.52
2022-09-12T16:47:38.104Z,1.35
2022-09-12T16:50:05.831Z,1.10
2022-09-12T16:52:34.895Z,1.17
2022-09-12T16:55:01.821Z,1.12
2022-09-12T16:57:28.735Z,1.23
2022-09-12T16:59:55.884Z,0.82
2022-09-12T17:02:22.849Z,1.08
2022-09-12T17:04:49.795Z,0.73
2022-09-12T17:07:16.682Z,2.15
2022-09-12T17:09:47.432Z,1.30
2022-09-12T17:12:15.132Z,3.28
2022-09-12T17:14:42.036Z,1.17
2022-09-12T17:17:08.947Z,1.62
2022-09-12T17:19:35.862Z,1.33
2022-09-12T17:22:02.811Z,1.75
2022-09-12T17:24:29.736Z,0.50
2022-09-12T17:26:57.283Z,0.73
2022-09-12T17:29:24.197Z,1.20
2022-09-12T17:31:51.129Z,1.87
2022-09-12T17:34:18.208Z,1.62
2022-09-12T17:36:48.445Z,2.65
2022-09-12T17:39:15.748Z,1.48
2022-09-12T17:41:43.153Z,1.25
2022-09-12T17:44:12.889Z,3.37
2022-09-12T17:46:40.827Z,1.25
2022-09-12T17:49:12.188Z,2.47
2022-09-12T17:51:40.476Z,1.23
2022-09-12T17:54:18.935Z,2.03
2022-09-12T17:56:49.727Z,1.87
2022-09-12T17:59:19.499Z,1.62
2022-09-12T18:02:05.864Z,1.45
2022-09-12T18:04:32.980Z,0.77
2022-09-12T18:07:00.562Z,0.90
2022-09-12T18:09:28.410Z,0.60
2022-09-12T18:11:55.532Z,2.78
2022-09-12T18:14:23.300Z,2.12
2022-09-12T18:16:50.608Z,1.65
2022-09-12T18:19:18.066Z,2.08
2022-09-12T18:21:45.542Z,1.55
2022-09-12T18:24:12.810Z,3.08
2022-09-12T18:26:39.942Z,1.40
2022-09-12T18:29:07.829Z,2.22
2022-09-12T18:31:35.345Z,3.85
2022-09-12T18:34:02.736Z,1.23
2022-09-12T18:36:31.040Z,2.37
2022-09-12T18:38:59.476Z,1.90
2022-09-12T18:41:26.963Z,1.58
2022-09-12T18:43:58.724Z,1.37
2022-09-12T18:46:27.578Z,0.60
2022-09-12T18:48:59.402Z,1.20
2022-09-12T18:51:32.978Z,1.95
2022-09-12T18:54:02.978Z,2.37
2022-09-12T18:56:34.725Z,2.65
2022-09-12T18:59:05.431Z,1.33
2022-09-12T19:01:38.213Z,1.55
2022-09-12T19:04:07.652Z,1.50
2022-09-12T19:06:43.668Z,3.55
2022-09-12T19:09:12.351Z,1.02
2022-09-12T19:11:42.622Z,3.92
2022-09-12T19:14:09.551Z,4.20
2022-09-12T19:16:36.937Z,3.67
2022-09-12T19:19:04.346Z,2.28
2022-09-12T19:21:32.114Z,4.20
2022-09-12T19:24:10.235Z,2.90
2022-09-12T19:26:39.062Z,5.72
2022-09-12T19:29:06.444Z,4.12
2022-09-12T19:31:33.471Z,4.03
2022-09-12T19:34:02.327Z,1.95
2022-09-12T19:36:46.778Z,2.62
2022-09-12T19:39:16.283Z,1.35
2022-09-12T19:41:44.141Z,3.28
2022-09-12T19:44:11.700Z,1.77
2022-09-12T19:46:38.920Z,6.50
2022-09-12T19:49:05.978Z,6.07
2022-09-12T19:51:32.914Z,2.92
2022-09-12T19:53:59.813Z,3.87
2022-09-12T19:56:27.114Z,2.10
2022-09-12T19:58:56.734Z,4.07
2022-09-12T20:01:28.147Z,5.15
2022-09-12T20:04:01.705Z,3.95
2022-09-12T20:06:28.722Z,5.25
2022-09-12T20:08:56.337Z,5.60
2022-09-12T20:11:24.048Z,3.20
2022-09-12T20:13:51.572Z,5.55
2022-09-12T20:16:22.448Z,2.83
2022-09-12T20:19:11.421Z,3.20
2022-09-12T20:21:38.564Z,2.55
2022-09-12T20:24:12.715Z,2.72
2022-09-12T20:26:40.838Z,2.85
2022-09-12T20:29:08.626Z,2.20
2022-09-12T20:31:37.983Z,6.12
2022-09-12T20:34:06.056Z,3.12
2022-09-12T20:36:33.675Z,4.03
2022-09-12T20:39:02.557Z,3.80
2022-09-12T20:41:31.723Z,4.43
2022-09-12T20:43:59.128Z,3.97
2022-09-12T20:46:27.928Z,3.40
2022-09-12T20:48:55.425Z,2.78
2022-09-12T20:51:24.324Z,6.00
2022-09-12T20:53:55.243Z,1.83
2022-09-12T20:56:23.857Z,4.32
2022-09-12T20:58:51.174Z,1.17
2022-09-12T21:01:18.234Z,3.10
2022-09-12T21:03:45.381Z,4.82
2022-09-12T21:06:14.340Z,5.12
2022-09-12T21:08:41.373Z,3.03
2022-09-12T21:11:08.279Z,1.65
2022-09-12T21:13:36.021Z,1.75
2022-09-12T21:16:08.821Z,1.65
2022-09-12T21:18:36.497Z,4.05
2022-09-12T21:21:05.056Z,4.32
2022-09-12T21:23:32.610Z,2.55
2022-09-12T21:26:00.567Z,2.17
2022-09-12T21:28:27.835Z,2.40
2022-09-12T21:30:54.975Z,2.83
2022-09-12T21:33:22.948Z,2.90
2022-09-12T21:35:50.371Z,2.75
2022-09-12T21:38:18.647Z,2.67
2022-09-12T21:40:46.828Z,2.58
2022-09-12T21:43:14.643Z,1.80
2022-09-12T21:45:41.869Z,3.53
2022-09-12T21:48:08.994Z,1.08
2022-09-12T21:50:35.875Z,3.92
2022-09-12T21:53:03.077Z,1.42
2022-09-12T21:55:29.992Z,3.15
2022-09-12T21:57:57.311Z,2.80
2022-09-12T22:00:24.330Z,2.37
2022-09-12T22:02:51.812Z,4.85
2022-09-12T22:05:20.438Z,4.07
2022-09-12T22:07:47.372Z,3.22
2022-09-12T22:10:15.243Z,3.67
2022-09-12T22:12:46.179Z,0.82
2022-09-12T22:15:38.762Z,1.83
2022-09-12T22:18:01.294Z,1.20
2022-09-12T22:20:28.286Z,1.33
2022-09-12T22:23:14.084Z,2.55
2022-09-12T22:25:41.128Z,2.03
2022-09-12T22:28:08.223Z,1.12
2022-09-12T22:30:35.498Z,1.83
2022-09-12T22:33:02.431Z,2.80
2022-09-12T22:35:29.434Z,2.05
2022-09-12T22:37:56.396Z,0.85
2022-09-12T22:40:23.396Z,1.52
2022-09-12T22:42:52.966Z,1.23
2022-09-12T22:45:20.073Z,0.88
2022-09-12T22:47:47.364Z,1.90
2022-09-12T22:50:14.610Z,1.40
2022-09-12T22:52:41.931Z,3.30
2022-09-12T22:55:09.805Z,1.67
2022-09-12T22:57:37.506Z,1.85
2022-09-12T23:00:08.088Z,1.45
2022-09-12T23:02:34.994Z,1.67
2022-09-12T23:05:02.393Z,1.00
2022-09-12T23:07:29.855Z,2.53
2022-09-12T23:09:56.989Z,1.62
2022-09-12T23:12:23.926Z,0.77
2022-09-12T23:14:50.851Z,0.52
2022-09-12T23:17:17.815Z,1.12
2022-09-12T23:19:44.757Z,1.58
2022-09-12T23:22:11.675Z,1.17
2022-09-12T23:24:38.883Z,2.37
2022-09-12T23:27:06.088Z,1.00
2022-09-12T23:29:35.459Z,0.30
2022-09-12T23:32:03.665Z,0.62
2022-09-12T23:34:31.087Z,0.52
2022-09-12T23:36:58.047Z,0.55
2022-09-12T23:39:25.054Z,1.00
2022-09-12T23:41:52.202Z,1.27
2022-09-12T23:44:19.281Z,0.62
2022-09-12T23:46:46.191Z,0.73
2022-09-12T23:49:13.158Z,0.62
2022-09-12T23:51:40.097Z,1.12
2022-09-12T23:54:06.996Z,0.70
2022-09-12T23:56:33.943Z,0.60
2022-09-12T23:59:00.818Z,1.00
